sensor_id;sensor_type;location;lat;lon;timestamp;P1;durP1;ratioP1;P2;durP2;ratioP2
41643;SDS011;44236;48.098;11.582;2022-07-06T00:01:15;8.93;;;1.23;;
41643;SDS011;44236;48.098;11.582;2022-07-06T00:03:41;3.63;;;0.90;;
41643;SDS011;44236;48.098;11.582;2022-07-06T00:06:07;5.72;;;1.00;;
41643;SDS011;44236;48.098;11.582;2022-07-06T00:08:32;1.88;;;0.93;;
41643;SDS011;44236;48.098;11.582;2022-07-06T00:10:59;1.67;;;0.80;;
41643;SDS011;44236;48.098;11.582;2022-07-06T00:13:25;1.67;;;0.88;;
41643;SDS011;44236;48.098;11.582;2022-07-06T00:15:51;2.42;;;0.70;;
41643;SDS011;44236;48.098;11.582;2022-07-06T00:18:16;1.30;;;0.77;;
41643;SDS011;44236;48.098;11.582;2022-07-06T00:20:42;1.83;;;0.93;;
41643;SDS011;44236;48.098;11.582;2022-07-06T00:23:08;2.50;;;1.10;;
41643;SDS011;44236;48.098;11.582;2022-07-06T00:25:33;3.63;;;1.20;;
41643;SDS011;44236;48.098;11.582;2022-07-06T00:27:59;2.15;;;1.42;;
41643;SDS011;44236;48.098;11.582;2022-07-06T00:30:25;3.20;;;1.00;;
41643;SDS011;44236;48.098;11.582;2022-07-06T00:32:50;3.25;;;0.90;;
41643;SDS011;44236;48.098;11.582;2022-07-06T00:35:16;1.73;;;0.68;;
41643;SDS011;44236;48.098;11.582;2022-07-06T00:37:42;2.67;;;0.80;;
41643;SDS011;44236;48.098;11.582;2022-07-06T00:40:07;2.13;;;1.00;;
41643;SDS011;44236;48.098;11.582;2022-07-06T00:42:44;2.78;;;1.00;;
41643;SDS011;44236;48.098;11.582;2022-07-06T00:45:12;1.05;;;0.75;;
41643;SDS011;44236;48.098;11.582;2022-07-06T00:47:39;1.45;;;0.93;;
41643;SDS011;44236;48.098;11.582;2022-07-06T00:50:06;1.05;;;0.80;;
41643;SDS011;44236;48.098;11.582;2022-07-06T00:52:39;8.38;;;1.17;;
41643;SDS011;44236;48.098;11.582;2022-07-06T00:55:09;4.65;;;1.00;;
41643;SDS011;44236;48.098;11.582;2022-07-06T00:57:35;2.65;;;1.10;;
41643;SDS011;44236;48.098;11.582;2022-07-06T01:00:05;1.77;;;0.95;;
41643;SDS011;44236;48.098;11.582;2022-07-06T01:02:32;1.65;;;0.77;;
41643;SDS011;44236;48.098;11.582;2022-07-06T01:04:59;3.40;;;1.08;;
41643;SDS011;44236;48.098;11.582;2022-07-06T01:07:25;1.80;;;0.80;;
41643;SDS011;44236;48.098;11.582;2022-07-06T01:09:52;4.28;;;1.02;;
41643;SDS011;44236;48.098;11.582;2022-07-06T01:12:18;1.40;;;0.90;;
41643;SDS011;44236;48.098;11.582;2022-07-06T01:14:44;2.70;;;0.90;;
41643;SDS011;44236;48.098;11.582;2022-07-06T01:17:10;1.83;;;0.80;;
41643;SDS011;44236;48.098;11.582;2022-07-06T01:19:38;1.83;;;0.90;;
41643;SDS011;44236;48.098;11.582;2022-07-06T01:22:04;1.40;;;0.90;;
41643;SDS011;44236;48.098;11.582;2022-07-06T01:24:29;1.27;;;0.88;;
41643;SDS011;44236;48.098;11.582;2022-07-06T01:26:55;2.95;;;0.90;;
41643;SDS011;44236;48.098;11.582;2022-07-06T01:29:21;1.63;;;1.00;;
41643;SDS011;44236;48.098;11.582;2022-07-06T01:31:48;2.45;;;0.90;;
41643;SDS011;44236;48.098;11.582;2022-07-06T01:34:15;1.20;;;0.82;;
41643;SDS011;44236;48.098;11.582;2022-07-06T01:36:42;3.42;;;0.80;;
41643;SDS011;44236;48.098;11.582;2022-07-06T01:39:07;1.90;;;0.80;;
41643;SDS011;44236;48.098;11.582;2022-07-06T01:41:34;1.95;;;0.80;;
41643;SDS011;44236;48.098;11.582;2022-07-06T01:44:00;1.77;;;0.77;;
41643;SDS011;44236;48.098;11.582;2022-07-06T01:46:25;1.98;;;0.93;;
41643;SDS011;44236;48.098;11.582;2022-07-06T01:48:51;0.98;;;0.80;;
41643;SDS011;44236;48.098;11.582;2022-07-06T01:51:17;4.88;;;1.10;;
41643;SDS011;44236;48.098;11.582;2022-07-06T01:53:43;3.35;;;0.90;;
41643;SDS011;44236;48.098;11.582;2022-07-06T01:56:09;0.75;;;0.60;;
41643;SDS011;44236;48.098;11.582;2022-07-06T01:58:35;1.42;;;0.80;;
41643;SDS011;44236;48.098;11.582;2022-07-06T02:01:14;2.03;;;1.05;;
41643;SDS011;44236;48.098;11.582;2022-07-06T02:03:41;2.83;;;0.90;;
41643;SDS011;44236;48.098;11.582;2022-07-06T02:06:07;2.38;;;1.00;;
41643;SDS011;44236;48.098;11.582;2022-07-06T02:08:34;1.52;;;0.85;;
41643;SDS011;44236;48.098;11.582;2022-07-06T02:11:01;2.65;;;0.75;;
41643;SDS011;44236;48.098;11.582;2022-07-06T02:13:27;0.98;;;0.88;;
41643;SDS011;44236;48.098;11.582;2022-07-06T02:15:53;4.10;;;1.20;;
41643;SDS011;44236;48.098;11.582;2022-07-06T02:18:19;0.98;;;0.70;;
41643;SDS011;44236;48.098;11.582;2022-07-06T02:20:45;1.45;;;0.93;;
41643;SDS011;44236;48.098;11.582;2022-07-06T02:23:10;2.25;;;0.90;;
41643;SDS011;44236;48.098;11.582;2022-07-06T02:25:36;0.98;;;0.73;;
41643;SDS011;44236;48.098;11.582;2022-07-06T02:28:02;4.22;;;0.90;;
41643;SDS011;44236;48.098;11.582;2022-07-06T02:30:27;2.67;;;0.90;;
41643;SDS011;44236;48.098;11.582;2022-07-06T02:32:53;2.38;;;0.93;;
41643;SDS011;44236;48.098;11.582;2022-07-06T02:35:19;2.92;;;0.90;;
41643;SDS011;44236;48.098;11.582;2022-07-06T02:37:44;1.55;;;0.70;;
41643;SDS011;44236;48.098;11.582;2022-07-06T02:40:10;1.70;;;0.75;;
41643;SDS011;44236;48.098;11.582;2022-07-06T02:42:36;1.45;;;0.98;;
41643;SDS011;44236;48.098;11.582;2022-07-06T02:45:01;1.33;;;0.93;;
41643;SDS011;44236;48.098;11.582;2022-07-06T02:47:28;1.77;;;1.13;;
41643;SDS011;44236;48.098;11.582;2022-07-06T02:49:53;2.55;;;0.63;;
41643;SDS011;44236;48.098;11.582;2022-07-06T02:52:19;2.30;;;0.98;;
41643;SDS011;44236;48.098;11.582;2022-07-06T02:54:45;1.90;;;0.80;;
41643;SDS011;44236;48.098;11.582;2022-07-06T02:57:11;1.65;;;0.80;;
41643;SDS011;44236;48.098;11.582;2022-07-06T02:59:37;1.90;;;1.10;;
41643;SDS011;44236;48.098;11.582;2022-07-06T03:02:03;6.28;;;0.80;;
41643;SDS011;44236;48.098;11.582;2022-07-06T03:04:29;0.90;;;0.70;;
41643;SDS011;44236;48.098;11.582;2022-07-06T03:06:55;2.47;;;1.02;;
41643;SDS011;44236;48.098;11.582;2022-07-06T03:09:20;2.58;;;0.85;;
41643;SDS011;44236;48.098;11.582;2022-07-06T03:11:46;0.90;;;0.60;;
41643;SDS011;44236;48.098;11.582;2022-07-06T03:14:12;2.03;;;1.13;;
41643;SDS011;44236;48.098;11.582;2022-07-06T03:16:38;2.03;;;0.80;;
41643;SDS011;44236;48.098;11.582;2022-07-06T03:19:03;2.10;;;0.90;;
41643;SDS011;44236;48.098;11.582;2022-07-06T03:21:29;0.93;;;0.63;;
41643;SDS011;44236;48.098;11.582;2022-07-06T03:23:55;1.85;;;0.98;;
41643;SDS011;44236;48.098;11.582;2022-07-06T03:26:20;1.27;;;0.75;;
41643;SDS011;44236;48.098;11.582;2022-07-06T03:28:46;2.15;;;0.80;;
41643;SDS011;44236;48.098;11.582;2022-07-06T03:31:12;1.15;;;0.68;;
41643;SDS011;44236;48.098;11.582;2022-07-06T03:33:37;2.13;;;1.00;;
41643;SDS011;44236;48.098;11.582;2022-07-06T03:36:03;1.92;;;0.90;;
41643;SDS011;44236;48.098;11.582;2022-07-06T03:38:30;2.35;;;0.90;;
41643;SDS011;44236;48.098;11.582;2022-07-06T03:40:56;4.32;;;0.90;;
41643;SDS011;44236;48.098;11.582;2022-07-06T03:43:22;1.70;;;0.88;;
41643;SDS011;44236;48.098;11.582;2022-07-06T03:45:47;1.17;;;0.90;;
41643;SDS011;44236;48.098;11.582;2022-07-06T03:48:13;1.55;;;0.90;;
41643;SDS011;44236;48.098;11.582;2022-07-06T03:50:38;1.20;;;0.60;;
41643;SDS011;44236;48.098;11.582;2022-07-06T03:53:04;2.78;;;0.80;;
41643;SDS011;44236;48.098;11.582;2022-07-06T03:55:30;1.75;;;0.90;;
41643;SDS011;44236;48.098;11.582;2022-07-06T03:57:55;1.92;;;0.80;;
41643;SDS011;44236;48.098;11.582;2022-07-06T04:00:21;2.65;;;0.93;;
41643;SDS011;44236;48.098;11.582;2022-07-06T04:02:47;2.28;;;1.10;;
41643;SDS011;44236;48.098;11.582;2022-07-06T04:05:12;1.88;;;0.68;;
41643;SDS011;44236;48.098;11.582;2022-07-06T04:07:38;3.17;;;0.88;;
41643;SDS011;44236;48.098;11.582;2022-07-06T04:10:04;2.10;;;1.00;;
41643;SDS011;44236;48.098;11.582;2022-07-06T04:12:30;0.82;;;0.70;;
41643;SDS011;44236;48.098;11.582;2022-07-06T04:14:56;1.48;;;0.68;;
41643;SDS011;44236;48.098;11.582;2022-07-06T04:17:22;0.60;;;0.60;;
41643;SDS011;44236;48.098;11.582;2022-07-06T04:20:08;0.82;;;0.50;;
41643;SDS011;44236;48.098;11.582;2022-07-06T04:22:36;1.55;;;0.80;;
41643;SDS011;44236;48.098;11.582;2022-07-06T04:25:05;0.68;;;0.60;;
41643;SDS011;44236;48.098;11.582;2022-07-06T04:27:31;1.08;;;0.60;;
41643;SDS011;44236;48.098;11.582;2022-07-06T04:29:57;1.15;;;0.80;;
41643;SDS011;44236;48.098;11.582;2022-07-06T04:32:22;1.73;;;1.00;;
41643;SDS011;44236;48.098;11.582;2022-07-06T04:34:48;1.27;;;0.70;;
41643;SDS011;44236;48.098;11.582;2022-07-06T04:37:13;1.17;;;0.75;;
41643;SDS011;44236;48.098;11.582;2022-07-06T04:39:39;0.80;;;0.70;;
41643;SDS011;44236;48.098;11.582;2022-07-06T04:42:05;1.58;;;1.05;;
41643;SDS011;44236;48.098;11.582;2022-07-06T04:44:30;1.63;;;0.80;;
41643;SDS011;44236;48.098;11.582;2022-07-06T04:46:56;1.65;;;1.02;;
41643;SDS011;44236;48.098;11.582;2022-07-06T04:49:21;3.90;;;1.20;;
41643;SDS011;44236;48.098;11.582;2022-07-06T04:51:47;2.15;;;0.95;;
41643;SDS011;44236;48.098;11.582;2022-07-06T04:54:13;3.45;;;1.17;;
41643;SDS011;44236;48.098;11.582;2022-07-06T04:56:38;3.50;;;1.67;;
41643;SDS011;44236;48.098;11.582;2022-07-06T04:59:04;4.10;;;1.30;;
41643;SDS011;44236;48.098;11.582;2022-07-06T05:01:29;4.97;;;1.55;;
41643;SDS011;44236;48.098;11.582;2022-07-06T05:03:55;12.35;;;3.15;;
41643;SDS011;44236;48.098;11.582;2022-07-06T05:06:21;10.85;;;4.00;;
41643;SDS011;44236;48.098;11.582;2022-07-06T05:08:46;10.95;;;4.68;;
41643;SDS011;44236;48.098;11.582;2022-07-06T05:11:12;12.15;;;4.13;;
41643;SDS011;44236;48.098;11.582;2022-07-06T05:13:37;12.43;;;3.67;;
41643;SDS011;44236;48.098;11.582;2022-07-06T05:16:03;9.40;;;3.33;;
41643;SDS011;44236;48.098;11.582;2022-07-06T05:18:29;9.57;;;3.15;;
41643;SDS011;44236;48.098;11.582;2022-07-06T05:20:55;8.57;;;3.60;;
41643;SDS011;44236;48.098;11.582;2022-07-06T05:23:21;11.73;;;3.00;;
41643;SDS011;44236;48.098;11.582;2022-07-06T05:25:46;9.98;;;3.53;;
41643;SDS011;44236;48.098;11.582;2022-07-06T05:28:12;12.00;;;3.67;;
41643;SDS011;44236;48.098;11.582;2022-07-06T05:30:38;7.05;;;3.30;;
41643;SDS011;44236;48.098;11.582;2022-07-06T05:33:03;11.88;;;3.50;;
41643;SDS011;44236;48.098;11.582;2022-07-06T05:35:29;11.13;;;3.92;;
41643;SDS011;44236;48.098;11.582;2022-07-06T05:37:55;11.70;;;3.53;;
41643;SDS011;44236;48.098;11.582;2022-07-06T05:40:21;7.97;;;2.75;;
41643;SDS011;44236;48.098;11.582;2022-07-06T05:42:46;9.02;;;3.72;;
41643;SDS011;44236;48.098;11.582;2022-07-06T05:45:12;9.40;;;3.17;;
41643;SDS011;44236;48.098;11.582;2022-07-06T05:47:38;7.07;;;2.42;;
41643;SDS011;44236;48.098;11.582;2022-07-06T05:50:23;7.20;;;2.33;;
41643;SDS011;44236;48.098;11.582;2022-07-06T05:52:56;8.13;;;2.55;;
41643;SDS011;44236;48.098;11.582;2022-07-06T05:55:24;7.47;;;2.00;;
41643;SDS011;44236;48.098;11.582;2022-07-06T05:57:50;6.70;;;2.08;;
41643;SDS011;44236;48.098;11.582;2022-07-06T06:00:15;4.38;;;1.60;;
41643;SDS011;44236;48.098;11.582;2022-07-06T06:02:41;8.45;;;2.10;;
41643;SDS011;44236;48.098;11.582;2022-07-06T06:05:08;5.65;;;1.95;;
41643;SDS011;44236;48.098;11.582;2022-07-06T06:07:37;5.30;;;2.00;;
41643;SDS011;44236;48.098;11.582;2022-07-06T06:10:04;5.30;;;1.58;;
41643;SDS011;44236;48.098;11.582;2022-07-06T06:12:32;6.22;;;2.03;;
41643;SDS011;44236;48.098;11.582;2022-07-06T06:14:58;7.05;;;2.47;;
41643;SDS011;44236;48.098;11.582;2022-07-06T06:17:23;5.32;;;2.00;;
41643;SDS011;44236;48.098;11.582;2022-07-06T06:19:49;5.03;;;1.77;;
41643;SDS011;44236;48.098;11.582;2022-07-06T06:22:14;6.60;;;1.83;;
41643;SDS011;44236;48.098;11.582;2022-07-06T06:24:40;5.00;;;1.33;;
41643;SDS011;44236;48.098;11.582;2022-07-06T06:27:06;6.00;;;2.15;;
41643;SDS011;44236;48.098;11.582;2022-07-06T06:29:32;4.00;;;1.73;;
41643;SDS011;44236;48.098;11.582;2022-07-06T06:31:57;5.65;;;2.75;;
41643;SDS011;44236;48.098;11.582;2022-07-06T06:34:23;5.03;;;2.00;;
41643;SDS011;44236;48.098;11.582;2022-07-06T06:36:49;4.15;;;1.70;;
41643;SDS011;44236;48.098;11.582;2022-07-06T06:39:14;5.18;;;1.58;;
41643;SDS011;44236;48.098;11.582;2022-07-06T06:41:40;4.30;;;1.85;;
41643;SDS011;44236;48.098;11.582;2022-07-06T06:44:06;5.07;;;1.50;;
41643;SDS011;44236;48.098;11.582;2022-07-06T06:46:32;4.40;;;1.75;;
41643;SDS011;44236;48.098;11.582;2022-07-06T06:48:57;3.70;;;1.75;;
41643;SDS011;44236;48.098;11.582;2022-07-06T06:51:23;5.15;;;2.08;;
41643;SDS011;44236;48.098;11.582;2022-07-06T06:53:49;6.53;;;2.08;;
41643;SDS011;44236;48.098;11.582;2022-07-06T06:56:14;6.07;;;1.95;;
41643;SDS011;44236;48.098;11.582;2022-07-06T06:58:40;4.47;;;1.30;;
41643;SDS011;44236;48.098;11.582;2022-07-06T07:01:05;7.03;;;2.10;;
41643;SDS011;44236;48.098;11.582;2022-07-06T07:03:31;5.13;;;1.90;;
41643;SDS011;44236;48.098;11.582;2022-07-06T07:05:57;4.10;;;1.77;;
41643;SDS011;44236;48.098;11.582;2022-07-06T07:08:23;3.25;;;1.42;;
41643;SDS011;44236;48.098;11.582;2022-07-06T07:10:48;5.15;;;1.80;;
41643;SDS011;44236;48.098;11.582;2022-07-06T07:13:14;4.53;;;2.03;;
41643;SDS011;44236;48.098;11.582;2022-07-06T07:15:40;3.63;;;1.42;;
41643;SDS011;44236;48.098;11.582;2022-07-06T07:18:05;2.97;;;1.50;;
41643;SDS011;44236;48.098;11.582;2022-07-06T07:20:31;3.22;;;1.40;;
41643;SDS011;44236;48.098;11.582;2022-07-06T07:22:58;5.47;;;1.45;;
41643;SDS011;44236;48.098;11.582;2022-07-06T07:25:24;4.05;;;1.40;;
41643;SDS011;44236;48.098;11.582;2022-07-06T07:27:51;5.25;;;1.60;;
41643;SDS011;44236;48.098;11.582;2022-07-06T07:30:16;5.13;;;1.73;;
41643;SDS011;44236;48.098;11.582;2022-07-06T07:32:42;5.22;;;1.77;;
41643;SDS011;44236;48.098;11.582;2022-07-06T07:35:08;4.28;;;1.60;;
41643;SDS011;44236;48.098;11.582;2022-07-06T07:37:34;3.00;;;1.30;;
41643;SDS011;44236;48.098;11.582;2022-07-06T07:40:00;5.57;;;1.40;;
41643;SDS011;44236;48.098;11.582;2022-07-06T07:42:26;2.85;;;1.27;;
41643;SDS011;44236;48.098;11.582;2022-07-06T07:44:52;4.20;;;1.95;;
41643;SDS011;44236;48.098;11.582;2022-07-06T07:47:17;3.25;;;1.67;;
41643;SDS011;44236;48.098;11.582;2022-07-06T07:49:43;3.97;;;1.30;;
41643;SDS011;44236;48.098;11.582;2022-07-06T07:52:09;3.88;;;1.40;;
41643;SDS011;44236;48.098;11.582;2022-07-06T07:54:36;3.78;;;1.05;;
41643;SDS011;44236;48.098;11.582;2022-07-06T07:57:01;5.22;;;1.77;;
41643;SDS011;44236;48.098;11.582;2022-07-06T07:59:27;3.38;;;1.08;;
41643;SDS011;44236;48.098;11.582;2022-07-06T08:01:53;3.30;;;1.20;;
41643;SDS011;44236;48.098;11.582;2022-07-06T08:04:19;3.80;;;1.85;;
41643;SDS011;44236;48.098;11.582;2022-07-06T08:06:46;3.35;;;1.17;;
41643;SDS011;44236;48.098;11.582;2022-07-06T08:09:12;3.60;;;1.67;;
41643;SDS011;44236;48.098;11.582;2022-07-06T08:11:38;5.55;;;1.55;;
41643;SDS011;44236;48.098;11.582;2022-07-06T08:14:04;3.92;;;1.30;;
41643;SDS011;44236;48.098;11.582;2022-07-06T08:16:30;4.60;;;1.23;;
41643;SDS011;44236;48.098;11.582;2022-07-06T08:18:56;3.35;;;1.40;;
41643;SDS011;44236;48.098;11.582;2022-07-06T08:21:22;4.03;;;1.52;;
41643;SDS011;44236;48.098;11.582;2022-07-06T08:23:47;1.73;;;0.95;;
41643;SDS011;44236;48.098;11.582;2022-07-06T08:26:13;2.10;;;0.98;;
41643;SDS011;44236;48.098;11.582;2022-07-06T08:28:39;5.00;;;1.55;;
41643;SDS011;44236;48.098;11.582;2022-07-06T08:31:05;3.50;;;1.17;;
41643;SDS011;44236;48.098;11.582;2022-07-06T08:33:30;2.00;;;0.98;;
41643;SDS011;44236;48.098;11.582;2022-07-06T08:35:56;2.42;;;1.13;;
41643;SDS011;44236;48.098;11.582;2022-07-06T08:38:21;3.75;;;1.08;;
41643;SDS011;44236;48.098;11.582;2022-07-06T08:40:49;3.83;;;1.33;;
41643;SDS011;44236;48.098;11.582;2022-07-06T08:43:16;3.10;;;1.00;;
41643;SDS011;44236;48.098;11.582;2022-07-06T08:45:42;3.17;;;1.17;;
41643;SDS011;44236;48.098;11.582;2022-07-06T08:48:11;2.83;;;1.08;;
41643;SDS011;44236;48.098;11.582;2022-07-06T08:50:38;2.00;;;1.10;;
41643;SDS011;44236;48.098;11.582;2022-07-06T08:53:04;2.47;;;1.02;;
41643;SDS011;44236;48.098;11.582;2022-07-06T08:55:30;2.22;;;0.95;;
41643;SDS011;44236;48.098;11.582;2022-07-06T08:57:57;4.70;;;1.48;;
41643;SDS011;44236;48.098;11.582;2022-07-06T09:00:24;2.42;;;1.23;;
41643;SDS011;44236;48.098;11.582;2022-07-06T09:02:50;2.53;;;1.05;;
41643;SDS011;44236;48.098;11.582;2022-07-06T09:05:18;3.28;;;1.25;;
41643;SDS011;44236;48.098;11.582;2022-07-06T09:07:50;2.10;;;0.70;;
41643;SDS011;44236;48.098;11.582;2022-07-06T09:10:17;2.42;;;1.10;;
41643;SDS011;44236;48.098;11.582;2022-07-06T09:12:44;5.30;;;1.40;;
41643;SDS011;44236;48.098;11.582;2022-07-06T09:15:10;2.42;;;0.90;;
41643;SDS011;44236;48.098;11.582;2022-07-06T09:17:39;3.00;;;1.10;;
41643;SDS011;44236;48.098;11.582;2022-07-06T09:20:07;1.98;;;0.90;;
41643;SDS011;44236;48.098;11.582;2022-07-06T09:22:34;1.55;;;0.90;;
41643;SDS011;44236;48.098;11.582;2022-07-06T09:27:43;1.20;;;1.00;;
41643;SDS011;44236;48.098;11.582;2022-07-06T09:30:15;1.73;;;0.98;;
41643;SDS011;44236;48.098;11.582;2022-07-06T09:32:42;2.22;;;1.02;;
41643;SDS011;44236;48.098;11.582;2022-07-06T09:40:27;2.45;;;1.00;;
41643;SDS011;44236;48.098;11.582;2022-07-06T09:43:08;1.95;;;1.02;;
41643;SDS011;44236;48.098;11.582;2022-07-06T09:45:42;2.40;;;1.20;;
41643;SDS011;44236;48.098;11.582;2022-07-06T09:48:14;1.30;;;0.60;;
41643;SDS011;44236;48.098;11.582;2022-07-06T09:50:49;1.75;;;1.05;;
41643;SDS011;44236;48.098;11.582;2022-07-06T09:53:19;2.08;;;1.08;;
41643;SDS011;44236;48.098;11.582;2022-07-06T09:55:53;3.70;;;1.50;;
41643;SDS011;44236;48.098;11.582;2022-07-06T09:58:20;1.60;;;0.90;;
41643;SDS011;44236;48.098;11.582;2022-07-06T10:00:47;1.75;;;0.90;;
41643;SDS011;44236;48.098;11.582;2022-07-06T10:03:15;2.75;;;1.17;;
41643;SDS011;44236;48.098;11.582;2022-07-06T10:05:42;1.83;;;1.00;;
41643;SDS011;44236;48.098;11.582;2022-07-06T10:08:11;1.63;;;0.80;;
41643;SDS011;44236;48.098;11.582;2022-07-06T10:10:37;2.33;;;1.10;;
41643;SDS011;44236;48.098;11.582;2022-07-06T10:13:04;1.33;;;0.80;;
41643;SDS011;44236;48.098;11.582;2022-07-06T10:15:32;2.70;;;0.95;;
41643;SDS011;44236;48.098;11.582;2022-07-06T10:17:59;1.95;;;1.00;;
41643;SDS011;44236;48.098;11.582;2022-07-06T10:20:29;1.95;;;0.95;;
41643;SDS011;44236;48.098;11.582;2022-07-06T10:23:01;1.33;;;0.80;;
41643;SDS011;44236;48.098;11.582;2022-07-06T10:25:28;1.33;;;1.00;;
41643;SDS011;44236;48.098;11.582;2022-07-06T10:27:54;1.27;;;0.82;;
41643;SDS011;44236;48.098;11.582;2022-07-06T10:30:20;1.27;;;0.60;;
41643;SDS011;44236;48.098;11.582;2022-07-06T10:32:48;2.50;;;0.80;;
41643;SDS011;44236;48.098;11.582;2022-07-06T10:35:15;1.92;;;0.75;;
41643;SDS011;44236;48.098;11.582;2022-07-06T10:37:43;1.70;;;0.80;;
41643;SDS011;44236;48.098;11.582;2022-07-06T10:40:12;1.38;;;0.85;;
41643;SDS011;44236;48.098;11.582;2022-07-06T10:43:01;2.20;;;0.80;;
41643;SDS011;44236;48.098;11.582;2022-07-06T10:50:37;1.20;;;0.90;;
41643;SDS011;44236;48.098;11.582;2022-07-06T10:53:12;1.63;;;0.80;;
41643;SDS011;44236;48.098;11.582;2022-07-06T10:55:38;1.48;;;0.80;;
41643;SDS011;44236;48.098;11.582;2022-07-06T10:58:05;1.58;;;0.88;;
41643;SDS011;44236;48.098;11.582;2022-07-06T11:00:50;1.20;;;0.80;;
41643;SDS011;44236;48.098;11.582;2022-07-06T11:03:33;1.55;;;0.90;;
41643;SDS011;44236;48.098;11.582;2022-07-06T11:06:01;1.70;;;1.00;;
41643;SDS011;44236;48.098;11.582;2022-07-06T11:14:01;2.45;;;0.90;;
41643;SDS011;44236;48.098;11.582;2022-07-06T11:16:34;1.45;;;1.05;;
41643;SDS011;44236;48.098;11.582;2022-07-06T11:21:46;1.17;;;0.80;;
41643;SDS011;44236;48.098;11.582;2022-07-06T11:24:24;2.42;;;1.02;;
41643;SDS011;44236;48.098;11.582;2022-07-06T11:26:55;0.93;;;0.70;;
41643;SDS011;44236;48.098;11.582;2022-07-06T11:29:22;1.67;;;0.88;;
41643;SDS011;44236;48.098;11.582;2022-07-06T11:31:51;1.75;;;0.80;;
41643;SDS011;44236;48.098;11.582;2022-07-06T11:34:29;2.05;;;1.08;;
41643;SDS011;44236;48.098;11.582;2022-07-06T11:36:57;2.40;;;1.13;;
41643;SDS011;44236;48.098;11.582;2022-07-06T11:39:32;1.63;;;1.15;;
41643;SDS011;44236;48.098;11.582;2022-07-06T11:42:00;1.58;;;1.00;;
41643;SDS011;44236;48.098;11.582;2022-07-06T11:44:28;1.58;;;0.80;;
41643;SDS011;44236;48.098;11.582;2022-07-06T11:46:55;1.30;;;0.80;;
41643;SDS011;44236;48.098;11.582;2022-07-06T11:49:27;2.35;;;1.08;;
41643;SDS011;44236;48.098;11.582;2022-07-06T11:51:53;0.57;;;0.52;;
41643;SDS011;44236;48.098;11.582;2022-07-06T11:54:19;1.70;;;0.90;;
41643;SDS011;44236;48.098;11.582;2022-07-06T11:56:47;1.75;;;0.90;;
41643;SDS011;44236;48.098;11.582;2022-07-06T11:59:24;1.55;;;0.80;;
41643;SDS011;44236;48.098;11.582;2022-07-06T12:01:57;1.20;;;0.88;;
41643;SDS011;44236;48.098;11.582;2022-07-06T12:04:30;1.60;;;1.02;;
41643;SDS011;44236;48.098;11.582;2022-07-06T12:07:01;1.80;;;0.90;;
41643;SDS011;44236;48.098;11.582;2022-07-06T12:09:32;1.57;;;0.90;;
41643;SDS011;44236;48.098;11.582;2022-07-06T12:11:59;1.67;;;0.90;;
41643;SDS011;44236;48.098;11.582;2022-07-06T12:14:28;1.85;;;0.82;;
41643;SDS011;44236;48.098;11.582;2022-07-06T12:16:55;1.90;;;0.90;;
41643;SDS011;44236;48.098;11.582;2022-07-06T12:19:27;1.55;;;0.70;;
41643;SDS011;44236;48.098;11.582;2022-07-06T12:21:53;1.15;;;0.63;;
41643;SDS011;44236;48.098;11.582;2022-07-06T12:24:22;2.88;;;0.82;;
41643;SDS011;44236;48.098;11.582;2022-07-06T12:26:50;1.48;;;1.02;;
41643;SDS011;44236;48.098;11.582;2022-07-06T12:29:17;1.13;;;0.70;;
41643;SDS011;44236;48.098;11.582;2022-07-06T12:34:16;1.42;;;0.80;;
41643;SDS011;44236;48.098;11.582;2022-07-06T12:36:43;1.63;;;0.98;;
41643;SDS011;44236;48.098;11.582;2022-07-06T12:39:13;1.08;;;0.80;;
41643;SDS011;44236;48.098;11.582;2022-07-06T12:41:50;2.88;;;0.90;;
41643;SDS011;44236;48.098;11.582;2022-07-06T12:44:23;1.52;;;0.90;;
41643;SDS011;44236;48.098;11.582;2022-07-06T12:46:50;1.02;;;0.80;;
41643;SDS011;44236;48.098;11.582;2022-07-06T12:49:26;2.20;;;1.08;;
41643;SDS011;44236;48.098;11.582;2022-07-06T12:51:53;1.52;;;0.90;;
41643;SDS011;44236;48.098;11.582;2022-07-06T12:54:22;1.02;;;0.80;;
41643;SDS011;44236;48.098;11.582;2022-07-06T12:56:56;1.92;;;1.00;;
41643;SDS011;44236;48.098;11.582;2022-07-06T12:59:25;2.83;;;1.23;;
41643;SDS011;44236;48.098;11.582;2022-07-06T13:01:51;1.60;;;0.75;;
41643;SDS011;44236;48.098;11.582;2022-07-06T13:04:21;2.05;;;0.90;;
41643;SDS011;44236;48.098;11.582;2022-07-06T13:06:55;1.27;;;0.80;;
41643;SDS011;44236;48.098;11.582;2022-07-06T13:09:21;1.13;;;0.70;;
41643;SDS011;44236;48.098;11.582;2022-07-06T13:11:47;0.80;;;0.80;;
41643;SDS011;44236;48.098;11.582;2022-07-06T13:14:17;1.35;;;0.95;;
41643;SDS011;44236;48.098;11.582;2022-07-06T13:16:44;1.85;;;1.00;;
41643;SDS011;44236;48.098;11.582;2022-07-06T13:19:10;1.00;;;0.65;;
41643;SDS011;44236;48.098;11.582;2022-07-06T13:21:37;0.98;;;0.75;;
41643;SDS011;44236;48.098;11.582;2022-07-06T13:24:03;1.25;;;0.88;;
41643;SDS011;44236;48.098;11.582;2022-07-06T13:26:30;1.58;;;0.85;;
41643;SDS011;44236;48.098;11.582;2022-07-06T13:28:59;1.60;;;0.90;;
41643;SDS011;44236;48.098;11.582;2022-07-06T13:31:25;1.63;;;1.00;;
41643;SDS011;44236;48.098;11.582;2022-07-06T13:33:52;1.40;;;0.80;;
41643;SDS011;44236;48.098;11.582;2022-07-06T13:36:17;1.10;;;0.80;;
41643;SDS011;44236;48.098;11.582;2022-07-06T13:38:43;1.27;;;0.90;;
41643;SDS011;44236;48.098;11.582;2022-07-06T13:41:08;1.90;;;0.88;;
41643;SDS011;44236;48.098;11.582;2022-07-06T13:43:34;1.00;;;0.60;;
41643;SDS011;44236;48.098;11.582;2022-07-06T13:46:06;1.17;;;0.70;;
41643;SDS011;44236;48.098;11.582;2022-07-06T13:48:33;1.60;;;0.77;;
41643;SDS011;44236;48.098;11.582;2022-07-06T13:50:59;0.90;;;0.70;;
41643;SDS011;44236;48.098;11.582;2022-07-06T13:53:26;1.23;;;0.68;;
41643;SDS011;44236;48.098;11.582;2022-07-06T13:55:51;1.67;;;1.10;;
41643;SDS011;44236;48.098;11.582;2022-07-06T13:58:17;0.88;;;0.68;;
41643;SDS011;44236;48.098;11.582;2022-07-06T14:00:43;0.93;;;0.70;;
41643;SDS011;44236;48.098;11.582;2022-07-06T14:03:09;2.13;;;0.90;;
41643;SDS011;44236;48.098;11.582;2022-07-06T14:05:34;1.38;;;0.88;;
41643;SDS011;44236;48.098;11.582;2022-07-06T14:08:00;1.70;;;0.70;;
41643;SDS011;44236;48.098;11.582;2022-07-06T14:10:26;1.40;;;0.80;;
41643;SDS011;44236;48.098;11.582;2022-07-06T14:12:52;1.25;;;0.70;;
41643;SDS011;44236;48.098;11.582;2022-07-06T14:15:18;1.33;;;0.90;;
41643;SDS011;44236;48.098;11.582;2022-07-06T14:17:44;1.77;;;0.88;;
41643;SDS011;44236;48.098;11.582;2022-07-06T14:20:12;1.75;;;0.90;;
41643;SDS011;44236;48.098;11.582;2022-07-06T14:22:38;0.95;;;0.82;;
41643;SDS011;44236;48.098;11.582;2022-07-06T14:25:04;1.52;;;0.93;;
41643;SDS011;44236;48.098;11.582;2022-07-06T14:27:31;0.90;;;0.70;;
41643;SDS011;44236;48.098;11.582;2022-07-06T14:29:58;1.77;;;0.90;;
41643;SDS011;44236;48.098;11.582;2022-07-06T14:32:23;1.00;;;0.70;;
41643;SDS011;44236;48.098;11.582;2022-07-06T14:34:50;2.50;;;1.00;;
41643;SDS011;44236;48.098;11.582;2022-07-06T14:37:16;1.33;;;0.70;;
41643;SDS011;44236;48.098;11.582;2022-07-06T14:39:42;0.95;;;0.70;;
41643;SDS011;44236;48.098;11.582;2022-07-06T14:42:08;1.25;;;0.70;;
41643;SDS011;44236;48.098;11.582;2022-07-06T14:44:34;1.48;;;0.77;;
41643;SDS011;44236;48.098;11.582;2022-07-06T14:47:00;3.58;;;0.88;;
41643;SDS011;44236;48.098;11.582;2022-07-06T14:49:25;1.63;;;0.90;;
41643;SDS011;44236;48.098;11.582;2022-07-06T14:51:51;2.45;;;1.17;;
41643;SDS011;44236;48.098;11.582;2022-07-06T14:54:16;0.75;;;0.70;;
41643;SDS011;44236;48.098;11.582;2022-07-06T14:56:42;1.30;;;0.80;;